sensor_id;sensor_type;location;lat;lon;timestamp;P1;durP1;ratioP1;P2;durP2;ratioP2
18104;SDS011;9179;50.968;3.134;2023-04-03T00:01:42;17.17;;;15.35;;
18104;SDS011;9179;50.968;3.134;2023-04-03T00:04:09;16.73;;;14.02;;
18104;SDS011;9179;50.968;3.134;2023-04-03T00:06:36;15.93;;;14.23;;
18104;SDS011;9179;50.968;3.134;2023-04-03T00:09:03;16.77;;;14.52;;
18104;SDS011;9179;50.968;3.134;2023-04-03T00:11:30;17.70;;;15.77;;
18104;SDS011;9179;50.968;3.134;2023-04-03T00:13:57;16.95;;;14.65;;
18104;SDS011;9179;50.968;3.134;2023-04-03T00:16:24;16.95;;;14.88;;
18104;SDS011;9179;50.968;3.134;2023-04-03T00:18:52;20.83;;;16.92;;
18104;SDS011;9179;50.968;3.134;2023-04-03T00:21:19;17.58;;;15.82;;
18104;SDS011;9179;50.968;3.134;2023-04-03T00:23:46;17.60;;;15.70;;
18104;SDS011;9179;50.968;3.134;2023-04-03T00:26:13;17.02;;;14.80;;
18104;SDS011;9179;50.968;3.134;2023-04-03T00:28:40;19.02;;;15.50;;
18104;SDS011;9179;50.968;3.134;2023-04-03T00:31:07;18.63;;;15.88;;
18104;SDS011;9179;50.968;3.134;2023-04-03T00:33:34;15.75;;;14.05;;
18104;SDS011;9179;50.968;3.134;2023-04-03T00:36:06;17.08;;;15.40;;
18104;SDS011;9179;50.968;3.134;2023-04-03T00:38:34;16.90;;;15.13;;
18104;SDS011;9179;50.968;3.134;2023-04-03T00:41:01;16.23;;;14.55;;
18104;SDS011;9179;50.968;3.134;2023-04-03T00:43:28;19.10;;;13.90;;
18104;SDS011;9179;50.968;3.134;2023-04-03T00:45:56;18.08;;;14.48;;
18104;SDS011;9179;50.968;3.134;2023-04-03T00:48:24;17.73;;;15.85;;
18104;SDS011;9179;50.968;3.134;2023-04-03T00:50:54;16.42;;;14.73;;
18104;SDS011;9179;50.968;3.134;2023-04-03T00:53:24;17.40;;;14.82;;
18104;SDS011;9179;50.968;3.134;2023-04-03T00:55:55;16.23;;;14.13;;
18104;SDS011;9179;50.968;3.134;2023-04-03T00:58:26;15.88;;;14.30;;
18104;SDS011;9179;50.968;3.134;2023-04-03T01:00:57;16.52;;;14.82;;
18104;SDS011;9179;50.968;3.134;2023-04-03T01:03:24;16.90;;;15.30;;
18104;SDS011;9179;50.968;3.134;2023-04-03T01:05:51;16.52;;;14.48;;
18104;SDS011;9179;50.968;3.134;2023-04-03T01:08:19;15.50;;;13.93;;
18104;SDS011;9179;50.968;3.134;2023-04-03T01:10:47;18.00;;;14.90;;
18104;SDS011;9179;50.968;3.134;2023-04-03T01:13:18;18.08;;;15.98;;
18104;SDS011;9179;50.968;3.134;2023-04-03T01:15:48;17.80;;;14.68;;
18104;SDS011;9179;50.968;3.134;2023-04-03T01:18:15;17.27;;;14.90;;
18104;SDS011;9179;50.968;3.134;2023-04-03T01:20:46;18.50;;;16.60;;
18104;SDS011;9179;50.968;3.134;2023-04-03T01:23:46;17.17;;;15.07;;
18104;SDS011;9179;50.968;3.134;2023-04-03T01:26:27;15.75;;;13.63;;
18104;SDS011;9179;50.968;3.134;2023-04-03T01:28:54;16.17;;;14.55;;
18104;SDS011;9179;50.968;3.134;2023-04-03T01:31:22;16.23;;;14.52;;
18104;SDS011;9179;50.968;3.134;2023-04-03T01:33:54;17.90;;;16.00;;
18104;SDS011;9179;50.968;3.134;2023-04-03T01:36:22;17.95;;;15.95;;
18104;SDS011;9179;50.968;3.134;2023-04-03T01:38:51;22.60;;;15.32;;
18104;SDS011;9179;50.968;3.134;2023-04-03T01:41:19;17.13;;;14.80;;
18104;SDS011;9179;50.968;3.134;2023-04-03T01:43:46;15.93;;;14.23;;
18104;SDS011;9179;50.968;3.134;2023-04-03T01:46:15;16.58;;;14.90;;
18104;SDS011;9179;50.968;3.134;2023-04-03T01:48:42;17.27;;;15.38;;
18104;SDS011;9179;50.968;3.134;2023-04-03T01:51:11;16.83;;;15.13;;
18104;SDS011;9179;50.968;3.134;2023-04-03T01:53:38;16.90;;;13.68;;
18104;SDS011;9179;50.968;3.134;2023-04-03T01:56:05;18.35;;;15.35;;
18104;SDS011;9179;50.968;3.134;2023-04-03T01:58:32;21.67;;;15.63;;
18104;SDS011;9179;50.968;3.134;2023-04-03T02:00:59;19.35;;;15.73;;
18104;SDS011;9179;50.968;3.134;2023-04-03T02:03:26;15.98;;;14.38;;
18104;SDS011;9179;50.968;3.134;2023-04-03T02:05:53;15.65;;;14.00;;
18104;SDS011;9179;50.968;3.134;2023-04-03T02:08:22;16.73;;;15.02;;
18104;SDS011;9179;50.968;3.134;2023-04-03T02:10:49;15.45;;;13.80;;
18104;SDS011;9179;50.968;3.134;2023-04-03T02:13:17;15.55;;;14.05;;
18104;SDS011;9179;50.968;3.134;2023-04-03T02:15:44;15.85;;;14.20;;
18104;SDS011;9179;50.968;3.134;2023-04-03T02:18:12;17.70;;;16.02;;
18104;SDS011;9179;50.968;3.134;2023-04-03T02:20:40;18.80;;;16.95;;
18104;SDS011;9179;50.968;3.134;2023-04-03T02:23:07;20.17;;;17.52;;
18104;SDS011;9179;50.968;3.134;2023-04-03T02:25:35;18.08;;;16.35;;
18104;SDS011;9179;50.968;3.134;2023-04-03T02:28:02;16.00;;;14.38;;
18104;SDS011;9179;50.968;3.134;2023-04-03T02:30:29;17.58;;;15.88;;
18104;SDS011;9179;50.968;3.134;2023-04-03T02:32:56;17.10;;;15.30;;
18104;SDS011;9179;50.968;3.134;2023-04-03T02:35:23;20.92;;;18.88;;
18104;SDS011;9179;50.968;3.134;2023-04-03T02:37:50;18.17;;;16.48;;
18104;SDS011;9179;50.968;3.134;2023-04-03T02:40:17;18.60;;;16.35;;
18104;SDS011;9179;50.968;3.134;2023-04-03T02:42:45;17.95;;;16.30;;
18104;SDS011;9179;50.968;3.134;2023-04-03T02:45:12;16.83;;;15.30;;
18104;SDS011;9179;50.968;3.134;2023-04-03T02:47:39;18.80;;;16.85;;
18104;SDS011;9179;50.968;3.134;2023-04-03T02:50:06;20.30;;;15.32;;
18104;SDS011;9179;50.968;3.134;2023-04-03T02:52:34;18.70;;;16.70;;
18104;SDS011;9179;50.968;3.134;2023-04-03T02:55:01;17.75;;;16.05;;
18104;SDS011;9179;50.968;3.134;2023-04-03T02:57:28;18.70;;;16.80;;
18104;SDS011;9179;50.968;3.134;2023-04-03T02:59:56;22.83;;;17.45;;
18104;SDS011;9179;50.968;3.134;2023-04-03T03:02:23;16.98;;;15.20;;
18104;SDS011;9179;50.968;3.134;2023-04-03T03:04:50;18.33;;;15.65;;
18104;SDS011;9179;50.968;3.134;2023-04-03T03:07:17;18.13;;;16.25;;
18104;SDS011;9179;50.968;3.134;2023-04-03T03:09:44;17.77;;;16.05;;
18104;SDS011;9179;50.968;3.134;2023-04-03T03:12:11;17.25;;;15.45;;
18104;SDS011;9179;50.968;3.134;2023-04-03T03:14:38;16.60;;;14.77;;
18104;SDS011;9179;50.968;3.134;2023-04-03T03:17:07;17.83;;;16.02;;
18104;SDS011;9179;50.968;3.134;2023-04-03T03:19:33;15.60;;;14.10;;
18104;SDS011;9179;50.968;3.134;2023-04-03T03:22:00;15.82;;;14.18;;
18104;SDS011;9179;50.968;3.134;2023-04-03T03:24:27;17.00;;;15.27;;
18104;SDS011;9179;50.968;3.134;2023-04-03T03:26:54;18.50;;;14.27;;
18104;SDS011;9179;50.968;3.134;2023-04-03T03:29:22;16.15;;;14.45;;
18104;SDS011;9179;50.968;3.134;2023-04-03T03:31:48;17.45;;;15.75;;
18104;SDS011;9179;50.968;3.134;2023-04-03T03:34:17;14.55;;;13.15;;
18104;SDS011;9179;50.968;3.134;2023-04-03T03:36:44;15.95;;;14.45;;
18104;SDS011;9179;50.968;3.134;2023-04-03T03:39:11;15.45;;;13.27;;
18104;SDS011;9179;50.968;3.134;2023-04-03T03:41:38;15.10;;;13.75;;
18104;SDS011;9179;50.968;3.134;2023-04-03T03:44:05;14.73;;;13.32;;
18104;SDS011;9179;50.968;3.134;2023-04-03T03:46:32;14.40;;;12.95;;
18104;SDS011;9179;50.968;3.134;2023-04-03T03:48:59;17.95;;;16.27;;
18104;SDS011;9179;50.968;3.134;2023-04-03T03:51:27;16.38;;;14.68;;
18104;SDS011;9179;50.968;3.134;2023-04-03T03:53:54;14.80;;;13.30;;
18104;SDS011;9179;50.968;3.134;2023-04-03T03:56:21;17.17;;;15.23;;
18104;SDS011;9179;50.968;3.134;2023-04-03T03:58:48;15.35;;;13.90;;
18104;SDS011;9179;50.968;3.134;2023-04-03T04:01:15;15.68;;;14.07;;
18104;SDS011;9179;50.968;3.134;2023-04-03T04:03:43;15.55;;;14.05;;
18104;SDS011;9179;50.968;3.134;2023-04-03T04:06:10;16.13;;;13.43;;
18104;SDS011;9179;50.968;3.134;2023-04-03T04:08:38;15.18;;;13.68;;
18104;SDS011;9179;50.968;3.134;2023-04-03T04:11:05;15.43;;;13.65;;
18104;SDS011;9179;50.968;3.134;2023-04-03T04:13:33;15.75;;;14.20;;
18104;SDS011;9179;50.968;3.134;2023-04-03T04:16:00;15.73;;;13.90;;
18104;SDS011;9179;50.968;3.134;2023-04-03T04:18:27;15.52;;;13.98;;
18104;SDS011;9179;50.968;3.134;2023-04-03T04:20:55;16.13;;;14.38;;
18104;SDS011;9179;50.968;3.134;2023-04-03T04:23:22;16.40;;;14.63;;
18104;SDS011;9179;50.968;3.134;2023-04-03T04:25:50;17.67;;;14.10;;
18104;SDS011;9179;50.968;3.134;2023-04-03T04:28:17;15.50;;;14.05;;
18104;SDS011;9179;50.968;3.134;2023-04-03T04:30:44;17.83;;;14.02;;
18104;SDS011;9179;50.968;3.134;2023-04-03T04:33:11;16.73;;;15.07;;
18104;SDS011;9179;50.968;3.134;2023-04-03T04:35:41;15.75;;;14.13;;
18104;SDS011;9179;50.968;3.134;2023-04-03T04:38:08;15.25;;;13.70;;
18104;SDS011;9179;50.968;3.134;2023-04-03T04:40:35;16.75;;;13.80;;
18104;SDS011;9179;50.968;3.134;2023-04-03T04:43:04;16.73;;;14.13;;
18104;SDS011;9179;50.968;3.134;2023-04-03T04:45:31;16.23;;;14.45;;
18104;SDS011;9179;50.968;3.134;2023-04-03T04:47:58;16.90;;;14.32;;
18104;SDS011;9179;50.968;3.134;2023-04-03T04:50:25;15.63;;;14.23;;
18104;SDS011;9179;50.968;3.134;2023-04-03T04:52:52;17.60;;;13.70;;
18104;SDS011;9179;50.968;3.134;2023-04-03T04:55:19;15.00;;;13.60;;
18104;SDS011;9179;50.968;3.134;2023-04-03T04:57:46;15.70;;;14.30;;
18104;SDS011;9179;50.968;3.134;2023-04-03T05:00:15;16.35;;;14.82;;
18104;SDS011;9179;50.968;3.134;2023-04-03T05:02:42;15.13;;;13.68;;
18104;SDS011;9179;50.968;3.134;2023-04-03T05:05:09;16.13;;;14.57;;
18104;SDS011;9179;50.968;3.134;2023-04-03T05:07:36;14.52;;;13.07;;
18104;SDS011;9179;50.968;3.134;2023-04-03T05:10:04;16.48;;;15.00;;
18104;SDS011;9179;50.968;3.134;2023-04-03T05:12:32;16.75;;;15.02;;
18104;SDS011;9179;50.968;3.134;2023-04-03T05:14:59;15.90;;;14.35;;
18104;SDS011;9179;50.968;3.134;2023-04-03T05:17:28;19.40;;;15.55;;
18104;SDS011;9179;50.968;3.134;2023-04-03T05:19:54;17.27;;;15.43;;
18104;SDS011;9179;50.968;3.134;2023-04-03T05:22:21;16.50;;;14.43;;
18104;SDS011;9179;50.968;3.134;2023-04-03T05:24:48;17.25;;;14.52;;
18104;SDS011;9179;50.968;3.134;2023-04-03T05:27:15;13.73;;;12.35;;
18104;SDS011;9179;50.968;3.134;2023-04-03T05:29:42;18.95;;;13.10;;
18104;SDS011;9179;50.968;3.134;2023-04-03T05:32:10;13.45;;;11.85;;
18104;SDS011;9179;50.968;3.134;2023-04-03T05:34:38;12.75;;;11.48;;
18104;SDS011;9179;50.968;3.134;2023-04-03T05:37:05;12.15;;;10.02;;
18104;SDS011;9179;50.968;3.134;2023-04-03T05:39:32;13.55;;;12.18;;
18104;SDS011;9179;50.968;3.134;2023-04-03T05:41:59;11.68;;;10.55;;
18104;SDS011;9179;50.968;3.134;2023-04-03T05:44:26;11.30;;;10.20;;
18104;SDS011;9179;50.968;3.134;2023-04-03T05:46:53;11.55;;;10.50;;
18104;SDS011;9179;50.968;3.134;2023-04-03T05:49:20;12.50;;;11.43;;
18104;SDS011;9179;50.968;3.134;2023-04-03T05:51:49;11.40;;;10.40;;
18104;SDS011;9179;50.968;3.134;2023-04-03T05:54:17;11.98;;;10.75;;
18104;SDS011;9179;50.968;3.134;2023-04-03T05:56:48;11.48;;;9.60;;
18104;SDS011;9179;50.968;3.134;2023-04-03T05:59:15;13.32;;;10.75;;
18104;SDS011;9179;50.968;3.134;2023-04-03T06:01:42;10.57;;;9.63;;
18104;SDS011;9179;50.968;3.134;2023-04-03T06:04:09;11.70;;;10.52;;
18104;SDS011;9179;50.968;3.134;2023-04-03T06:06:44;11.90;;;10.75;;
18104;SDS011;9179;50.968;3.134;2023-04-03T06:09:14;12.50;;;11.07;;
18104;SDS011;9179;50.968;3.134;2023-04-03T06:11:42;13.40;;;11.27;;
18104;SDS011;9179;50.968;3.134;2023-04-03T06:14:09;12.63;;;11.38;;
18104;SDS011;9179;50.968;3.134;2023-04-03T06:16:36;16.45;;;10.98;;
18104;SDS011;9179;50.968;3.134;2023-04-03T06:19:04;11.80;;;10.40;;
18104;SDS011;9179;50.968;3.134;2023-04-03T06:21:31;13.77;;;11.25;;
18104;SDS011;9179;50.968;3.134;2023-04-03T06:23:59;16.52;;;13.55;;
18104;SDS011;9179;50.968;3.134;2023-04-03T06:26:27;17.73;;;14.07;;
18104;SDS011;9179;50.968;3.134;2023-04-03T06:28:54;16.35;;;12.52;;
18104;SDS011;9179;50.968;3.134;2023-04-03T06:31:22;12.48;;;11.27;;
18104;SDS011;9179;50.968;3.134;2023-04-03T06:33:49;11.60;;;10.45;;
18104;SDS011;9179;50.968;3.134;2023-04-03T06:36:17;12.45;;;10.38;;
18104;SDS011;9179;50.968;3.134;2023-04-03T06:38:46;12.70;;;9.90;;
18104;SDS011;9179;50.968;3.134;2023-04-03T06:41:13;11.15;;;9.63;;
18104;SDS011;9179;50.968;3.134;2023-04-03T06:43:43;11.05;;;9.98;;
18104;SDS011;9179;50.968;3.134;2023-04-03T06:46:12;9.13;;;8.23;;
18104;SDS011;9179;50.968;3.134;2023-04-03T06:48:41;9.90;;;9.02;;
18104;SDS011;9179;50.968;3.134;2023-04-03T06:51:10;8.35;;;7.55;;
18104;SDS011;9179;50.968;3.134;2023-04-03T06:53:43;7.93;;;7.22;;
18104;SDS011;9179;50.968;3.134;2023-04-03T06:56:10;8.45;;;7.75;;
18104;SDS011;9179;50.968;3.134;2023-04-03T06:58:37;8.13;;;7.15;;
18104;SDS011;9179;50.968;3.134;2023-04-03T07:01:06;7.00;;;6.40;;
18104;SDS011;9179;50.968;3.134;2023-04-03T07:03:33;8.15;;;7.40;;
18104;SDS011;9179;50.968;3.134;2023-04-03T07:06:00;6.75;;;6.15;;
18104;SDS011;9179;50.968;3.134;2023-04-03T07:08:27;8.23;;;6.40;;
18104;SDS011;9179;50.968;3.134;2023-04-03T07:10:54;6.80;;;5.75;;
18104;SDS011;9179;50.968;3.134;2023-04-03T07:13:26;7.85;;;7.07;;
18104;SDS011;9179;50.968;3.134;2023-04-03T07:15:53;7.07;;;6.43;;
18104;SDS011;9179;50.968;3.134;2023-04-03T07:18:22;6.10;;;5.50;;
18104;SDS011;9179;50.968;3.134;2023-04-03T07:20:49;7.00;;;6.43;;
18104;SDS011;9179;50.968;3.134;2023-04-03T07:23:16;6.82;;;5.32;;
18104;SDS011;9179;50.968;3.134;2023-04-03T07:25:43;8.10;;;6.28;;
18104;SDS011;9179;50.968;3.134;2023-04-03T07:28:11;5.95;;;5.47;;
18104;SDS011;9179;50.968;3.134;2023-04-03T07:30:48;6.32;;;5.53;;
18104;SDS011;9179;50.968;3.134;2023-04-03T07:33:16;6.60;;;5.93;;
18104;SDS011;9179;50.968;3.134;2023-04-03T07:35:48;5.30;;;4.80;;
18104;SDS011;9179;50.968;3.134;2023-04-03T07:38:15;5.63;;;5.22;;
18104;SDS011;9179;50.968;3.134;2023-04-03T07:40:45;5.10;;;4.80;;
18104;SDS011;9179;50.968;3.134;2023-04-03T07:43:13;4.57;;;4.28;;
18104;SDS011;9179;50.968;3.134;2023-04-03T07:45:40;6.82;;;4.88;;
18104;SDS011;9179;50.968;3.134;2023-04-03T07:48:08;5.60;;;5.13;;
18104;SDS011;9179;50.968;3.134;2023-04-03T07:50:35;9.18;;;5.15;;
18104;SDS011;9179;50.968;3.134;2023-04-03T07:53:04;7.60;;;5.68;;
18104;SDS011;9179;50.968;3.134;2023-04-03T07:55:31;5.55;;;5.10;;
18104;SDS011;9179;50.968;3.134;2023-04-03T07:57:58;7.95;;;5.32;;
18104;SDS011;9179;50.968;3.134;2023-04-03T08:00:25;6.45;;;5.10;;
18104;SDS011;9179;50.968;3.134;2023-04-03T08:02:52;4.90;;;4.32;;
18104;SDS011;9179;50.968;3.134;2023-04-03T08:05:19;5.53;;;5.03;;
18104;SDS011;9179;50.968;3.134;2023-04-03T08:07:46;5.13;;;4.63;;
18104;SDS011;9179;50.968;3.134;2023-04-03T08:10:15;7.03;;;4.68;;
18104;SDS011;9179;50.968;3.134;2023-04-03T08:12:45;5.18;;;4.70;;
18104;SDS011;9179;50.968;3.134;2023-04-03T08:15:12;6.65;;;4.88;;
18104;SDS011;9179;50.968;3.134;2023-04-03T08:17:41;4.93;;;4.45;;
18104;SDS011;9179;50.968;3.134;2023-04-03T08:20:09;5.43;;;4.93;;
18104;SDS011;9179;50.968;3.134;2023-04-03T08:22:36;5.75;;;4.70;;
18104;SDS011;9179;50.968;3.134;2023-04-03T08:25:04;5.55;;;4.30;;
18104;SDS011;9179;50.968;3.134;2023-04-03T08:27:33;6.65;;;4.07;;
18104;SDS011;9179;50.968;3.134;2023-04-03T08:30:00;4.10;;;3.80;;
18104;SDS011;9179;50.968;3.134;2023-04-03T08:32:27;4.63;;;4.22;;
18104;SDS011;9179;50.968;3.134;2023-04-03T08:34:54;4.65;;;4.25;;
18104;SDS011;9179;50.968;3.134;2023-04-03T08:37:21;4.43;;;4.13;;
18104;SDS011;9179;50.968;3.134;2023-04-03T08:39:48;5.28;;;4.50;;
18104;SDS011;9179;50.968;3.134;2023-04-03T08:42:16;4.40;;;4.05;;
18104;SDS011;9179;50.968;3.134;2023-04-03T08:44:55;5.65;;;5.07;;
18104;SDS011;9179;50.968;3.134;2023-04-03T08:47:28;7.18;;;6.10;;
18104;SDS011;9179;50.968;3.134;2023-04-03T08:50:02;7.28;;;5.40;;
18104;SDS011;9179;50.968;3.134;2023-04-03T08:52:34;6.28;;;5.68;;
18104;SDS011;9179;50.968;3.134;2023-04-03T08:55:06;6.55;;;6.05;;
18104;SDS011;9179;50.968;3.134;2023-04-03T08:57:48;6.97;;;6.18;;
18104;SDS011;9179;50.968;3.134;2023-04-03T09:00:25;6.57;;;5.97;;
18104;SDS011;9179;50.968;3.134;2023-04-03T09:02:55;8.18;;;7.45;;
18104;SDS011;9179;50.968;3.134;2023-04-03T09:05:28;9.00;;;8.10;;
18104;SDS011;9179;50.968;3.134;2023-04-03T09:08:03;8.23;;;7.50;;
18104;SDS011;9179;50.968;3.134;2023-04-03T09:10:34;7.53;;;6.97;;
18104;SDS011;9179;50.968;3.134;2023-04-03T09:13:06;6.97;;;6.43;;
18104;SDS011;9179;50.968;3.134;2023-04-03T09:15:40;7.88;;;7.03;;
18104;SDS011;9179;50.968;3.134;2023-04-03T09:18:11;8.13;;;7.22;;
18104;SDS011;9179;50.968;3.134;2023-04-03T09:20:44;7.03;;;6.38;;
18104;SDS011;9179;50.968;3.134;2023-04-03T09:23:16;7.80;;;6.78;;
18104;SDS011;9179;50.968;3.134;2023-04-03T09:25:48;8.82;;;7.28;;
18104;SDS011;9179;50.968;3.134;2023-04-03T09:28:19;6.93;;;6.32;;
18104;SDS011;9179;50.968;3.134;2023-04-03T09:30:47;7.85;;;6.22;;
18104;SDS011;9179;50.968;3.134;2023-04-03T09:33:14;6.85;;;6.30;;
18104;SDS011;9179;50.968;3.134;2023-04-03T09:35:43;6.93;;;6.32;;
18104;SDS011;9179;50.968;3.134;2023-04-03T09:38:17;9.82;;;7.85;;
18104;SDS011;9179;50.968;3.134;2023-04-03T09:40:46;8.75;;;8.02;;
18104;SDS011;9179;50.968;3.134;2023-04-03T09:43:20;7.53;;;6.85;;
18104;SDS011;9179;50.968;3.134;2023-04-03T09:45:53;7.10;;;6.50;;
18104;SDS011;9179;50.968;3.134;2023-04-03T09:48:22;7.07;;;6.50;;
18104;SDS011;9179;50.968;3.134;2023-04-03T09:50:54;8.25;;;7.47;;
18104;SDS011;9179;50.968;3.134;2023-04-03T09:53:26;6.95;;;6.10;;
18104;SDS011;9179;50.968;3.134;2023-04-03T09:55:58;7.70;;;7.10;;
18104;SDS011;9179;50.968;3.134;2023-04-03T09:58:27;7.05;;;6.35;;
18104;SDS011;9179;50.968;3.134;2023-04-03T10:00:57;8.18;;;6.38;;
18104;SDS011;9179;50.968;3.134;2023-04-03T10:03:28;7.13;;;6.53;;
18104;SDS011;9179;50.968;3.134;2023-04-03T10:05:57;6.65;;;5.95;;
18104;SDS011;9179;50.968;3.134;2023-04-03T10:08:25;6.22;;;5.72;;
18104;SDS011;9179;50.968;3.134;2023-04-03T10:11:08;8.35;;;7.03;;
18104;SDS011;9179;50.968;3.134;2023-04-03T10:13:53;6.45;;;5.85;;
18104;SDS011;9179;50.968;3.134;2023-04-03T10:16:26;5.88;;;5.38;;
18104;SDS011;9179;50.968;3.134;2023-04-03T10:19:03;6.05;;;5.40;;
18104;SDS011;9179;50.968;3.134;2023-04-03T10:21:40;7.20;;;5.70;;
18104;SDS011;9179;50.968;3.134;2023-04-03T10:24:16;6.82;;;3.85;;
18104;SDS011;9179;50.968;3.134;2023-04-03T10:26:50;5.20;;;4.80;;
18104;SDS011;9179;50.968;3.134;2023-04-03T10:29:30;4.88;;;4.38;;
18104;SDS011;9179;50.968;3.134;2023-04-03T10:32:14;5.40;;;4.97;;
18104;SDS011;9179;50.968;3.134;2023-04-03T10:34:54;6.72;;;5.93;;
18104;SDS011;9179;50.968;3.134;2023-04-03T10:37:29;6.88;;;6.20;;
18104;SDS011;9179;50.968;3.134;2023-04-03T10:40:02;7.00;;;6.45;;
18104;SDS011;9179;50.968;3.134;2023-04-03T10:42:49;6.82;;;5.78;;
18104;SDS011;9179;50.968;3.134;2023-04-03T10:45:24;6.22;;;5.72;;
18104;SDS011;9179;50.968;3.134;2023-04-03T10:47:58;4.80;;;4.40;;
18104;SDS011;9179;50.968;3.134;2023-04-03T10:50:35;4.55;;;4.15;;
18104;SDS011;9179;50.968;3.134;2023-04-03T10:53:11;7.60;;;5.15;;
18104;SDS011;9179;50.968;3.134;2023-04-03T10:55:48;8.77;;;5.25;;
18104;SDS011;9179;50.968;3.134;2023-04-03T10:58:21;4.53;;;4.18;;
18104;SDS011;9179;50.968;3.134;2023-04-03T11:00:56;4.18;;;3.83;;
18104;SDS011;9179;50.968;3.134;2023-04-03T11:03:31;5.25;;;4.32;;
18104;SDS011;9179;50.968;3.134;2023-04-03T11:06:05;6.43;;;3.88;;
18104;SDS011;9179;50.968;3.134;2023-04-03T11:08:35;5.15;;;4.00;;
18104;SDS011;9179;50.968;3.134;2023-04-03T11:11:09;4.07;;;3.78;;
18104;SDS011;9179;50.968;3.134;2023-04-03T11:13:40;4.55;;;3.95;;
18104;SDS011;9179;50.968;3.134;2023-04-03T11:16:12;4.18;;;3.30;;
18104;SDS011;9179;50.968;3.134;2023-04-03T11:18:46;4.47;;;3.85;;
18104;SDS011;9179;50.968;3.134;2023-04-03T11:21:19;4.60;;;4.18;;
18104;SDS011;9179;50.968;3.134;2023-04-03T11:23:48;6.03;;;3.47;;
18104;SDS011;9179;50.968;3.134;2023-04-03T11:26:18;3.40;;;3.10;;
18104;SDS011;9179;50.968;3.134;2023-04-03T11:28:47;3.40;;;3.08;;
18104;SDS011;9179;50.968;3.134;2023-04-03T11:31:23;3.50;;;3.20;;
18104;SDS011;9179;50.968;3.134;2023-04-03T11:34:11;3.50;;;3.20;;
18104;SDS011;9179;50.968;3.134;2023-04-03T11:36:48;3.08;;;2.88;;
18104;SDS011;9179;50.968;3.134;2023-04-03T11:39:19;3.30;;;2.90;;
18104;SDS011;9179;50.968;3.134;2023-04-03T11:41:49;3.17;;;2.90;;
18104;SDS011;9179;50.968;3.134;2023-04-03T11:44:28;3.25;;;2.92;;
18104;SDS011;9179;50.968;3.134;2023-04-03T11:47:00;4.18;;;3.83;;
18104;SDS011;9179;50.968;3.134;2023-04-03T11:55:42;3.35;;;2.67;;
18104;SDS011;9179;50.968;3.134;2023-04-03T11:58:36;3.92;;;3.30;;
18104;SDS011;9179;50.968;3.134;2023-04-03T12:01:04;5.03;;;3.67;;
18104;SDS011;9179;50.968;3.134;2023-04-03T12:12:41;3.45;;;2.63;;
18104;SDS011;9179;50.968;3.134;2023-04-03T12:15:26;3.50;;;2.95;;
18104;SDS011;9179;50.968;3.134;2023-04-03T12:21:15;2.95;;;2.67;;
18104;SDS011;9179;50.968;3.134;2023-04-03T12:23:58;3.38;;;3.08;;
18104;SDS011;9179;50.968;3.134;2023-04-03T12:26:32;3.53;;;3.22;;
18104;SDS011;9179;50.968;3.134;2023-04-03T12:29:10;4.72;;;2.63;;
18104;SDS011;9179;50.968;3.134;2023-04-03T12:31:43;2.90;;;2.08;;
18104;SDS011;9179;50.968;3.134;2023-04-03T12:34:26;3.97;;;2.83;;
18104;SDS011;9179;50.968;3.134;2023-04-03T12:37:07;3.88;;;2.60;;
18104;SDS011;9179;50.968;3.134;2023-04-03T12:39:50;2.53;;;2.25;;
18104;SDS011;9179;50.968;3.134;2023-04-03T12:42:30;2.65;;;2.30;;
18104;SDS011;9179;50.968;3.134;2023-04-03T12:45:09;6.53;;;2.97;;
18104;SDS011;9179;50.968;3.134;2023-04-03T12:47:43;2.70;;;2.50;;
18104;SDS011;9179;50.968;3.134;2023-04-03T12:50:16;2.50;;;2.30;;
18104;SDS011;9179;50.968;3.134;2023-04-03T12:52:50;3.20;;;2.53;;
18104;SDS011;9179;50.968;3.134;2023-04-03T12:55:22;3.28;;;2.50;;
18104;SDS011;9179;50.968;3.134;2023-04-03T12:57:49;2.92;;;2.30;;
18104;SDS011;9179;50.968;3.134;2023-04-03T13:00:21;2.60;;;2.33;;
18104;SDS011;9179;50.968;3.134;2023-04-03T13:02:53;3.63;;;2.05;;
18104;SDS011;9179;50.968;3.134;2023-04-03T13:05:21;4.75;;;2.33;;
18104;SDS011;9179;50.968;3.134;2023-04-03T13:07:49;3.30;;;1.80;;
18104;SDS011;9179;50.968;3.134;2023-04-03T13:10:23;2.47;;;2.20;;
18104;SDS011;9179;50.968;3.134;2023-04-03T13:12:51;2.03;;;1.88;;
18104;SDS011;9179;50.968;3.134;2023-04-03T13:15:19;2.42;;;2.22;;
18104;SDS011;9179;50.968;3.134;2023-04-03T13:17:49;3.85;;;2.55;;
18104;SDS011;9179;50.968;3.134;2023-04-03T13:20:19;4.22;;;2.65;;
18104;SDS011;9179;50.968;3.134;2023-04-03T13:22:51;2.70;;;2.50;;
18104;SDS011;9179;50.968;3.134;2023-04-03T13:25:23;2.30;;;2.10;;
18104;SDS011;9179;50.968;3.134;2023-04-03T13:27:53;2.80;;;2.33;;
18104;SDS011;9179;50.968;3.134;2023-04-03T13:30:23;3.95;;;3.53;;
18104;SDS011;9179;50.968;3.134;2023-04-03T13:32:53;4.50;;;3.30;;
18104;SDS011;9179;50.968;3.134;2023-04-03T13:35:27;4.32;;;2.90;;
18104;SDS011;9179;50.968;3.134;2023-04-03T13:37:57;2.47;;;2.33;;
18104;SDS011;9179;50.968;3.134;2023-04-03T13:40:26;3.40;;;2.80;;
18104;SDS011;9179;50.968;3.134;2023-04-03T13:43:01;3.15;;;2.40;;
18104;SDS011;9179;50.968;3.134;2023-04-03T13:45:30;4.25;;;2.60;;
18104;SDS011;9179;50.968;3.134;2023-04-03T13:48:08;4.55;;;2.50;;
18104;SDS011;9179;50.968;3.134;2023-04-03T13:50:53;3.92;;;3.10;;
18104;SDS011;9179;50.968;3.134;2023-04-03T13:53:26;3.10;;;1.98;;
18104;SDS011;9179;50.968;3.134;2023-04-03T13:56:05;4.63;;;3.22;;
18104;SDS011;9179;50.968;3.134;2023-04-03T13:58:35;3.28;;;2.58;;
18104;SDS011;9179;50.968;3.134;2023-04-03T14:01:08;3.10;;;2.47;;
18104;SDS011;9179;50.968;3.134;2023-04-03T14:03:44;2.00;;;1.88;;
18104;SDS011;9179;50.968;3.134;2023-04-03T14:06:13;2.83;;;2.50;;
18104;SDS011;9179;50.968;3.134;2023-04-03T14:08:42;3.58;;;2.40;;
18104;SDS011;9179;50.968;3.134;2023-04-03T14:11:15;5.80;;;3.33;;
18104;SDS011;9179;50.968;3.134;2023-04-03T14:13:46;3.90;;;2.35;;
18104;SDS011;9179;50.968;3.134;2023-04-03T14:16:14;2.78;;;2.20;;
18104;SDS011;9179;50.968;3.134;2023-04-03T14:18:42;2.83;;;2.47;;
18104;SDS011;9179;50.968;3.134;2023-04-03T14:21:10;2.60;;;2.15;;
18104;SDS011;9179;50.968;3.134;2023-04-03T14:23:38;2.95;;;2.65;;
18104;SDS011;9179;50.968;3.134;2023-04-03T14:26:08;3.20;;;2.20;;
18104;SDS011;9179;50.968;3.134;2023-04-03T14:28:39;3.58;;;2.40;;
18104;SDS011;9179;50.968;3.134;2023-04-03T14:31:06;3.78;;;2.28;;
18104;SDS011;9179;50.968;3.134;2023-04-03T14:33:33;3.03;;;2.38;;
18104;SDS011;9179;50.968;3.134;2023-04-03T14:36:01;4.95;;;2.97;;
18104;SDS011;9179;50.968;3.134;2023-04-03T14:38:37;3.80;;;2.90;;
18104;SDS011;9179;50.968;3.134;2023-04-03T14:41:04;2.67;;;2.47;;
18104;SDS011;9179;50.968;3.134;2023-04-03T14:43:31;3.10;;;2.47;;
18104;SDS011;9179;50.968;3.134;2023-04-03T14:45:59;3.00;;;2.80;;
18104;SDS011;9179;50.968;3.134;2023-04-03T14:48:26;4.40;;;2.42;;
18104;SDS011;9179;50.968;3.134;2023-04-03T14:50:55;4.40;;;2.40;;
18104;SDS011;9179;50.968;3.134;2023-04-03T14:53:22;5.50;;;2.40;;
18104;SDS011;9179;50.968;3.134;2023-04-03T14:55:51;2.20;;;2.00;;
18104;SDS011;9179;50.968;3.134;2023-04-03T14:58:19;2.72;;;2.22;;
18104;SDS011;9179;50.968;3.134;2023-04-03T15:00:46;4.50;;;2.85;;
18104;SDS011;9179;50.968;3.134;2023-04-03T15:03:16;2.80;;;2.60;;
18104;SDS011;9179;50.968;3.134;2023-04-03T15:05:44;2.40;;;2.20;;
18104;SDS011;9179;50.968;3.134;2023-04-03T15:08:17;3.15;;;2.28;;
18104;SDS011;9179;50.968;3.134;2023-04-03T15:10:46;3.08;;;1.85;;
18104;SDS011;9179;50.968;3.134;2023-04-03T15:13:14;3.40;;;2.13;;
18104;SDS011;9179;50.968;3.134;2023-04-03T15:15:41;3.78;;;2.20;;
18104;SDS011;9179;50.968;3.134;2023-04-03T15:18:10;4.57;;;2.80;;
18104;SDS011;9179;50.968;3.134;2023-04-03T15:20:44;3.28;;;2.70;;
18104;SDS011;9179;50.968;3.134;2023-04-03T15:23:11;3.78;;;2.45;;